EDT,Max TemperatureF,Mean TemperatureF,Min TemperatureF,Max Dew PointF,MeanDew PointF,Min DewpointF,Max Humidity, Mean Humidity, Min Humidity, Max Sea Level PressureIn, Mean Sea Level PressureIn, Min Sea Level PressureIn, Max VisibilityMiles, Mean VisibilityMiles, Min VisibilityMiles, Max Wind SpeedMPH, Mean Wind SpeedMPH, Max Gust SpeedMPH,PrecipitationIn, CloudCover, Events, WindDirDegrees
2013-7-1,83,75,67,67,66,64,93,74,55,29.97,29.89,29.80,10,5,0,15,4,21,1.14,6,Fog-Rain-Thunderstorm,79
2013-7-2,84,76,68,68,66,62,93,71,48,30.10,30.02,29.94,10,8,4,10,5,16,0.01,6,,155
2013-7-3,76,71,66,70,67,64,97,90,82,30.20,30.16,30.09,10,6,0,16,6,21,1.10,8,Fog-Rain-Thunderstorm,110
2013-7-4,78,72,66,72,68,64,100,90,79,30.24,30.18,30.13,10,4,0,17,7,30,1.04,8,Fog-Rain-Thunderstorm,115
2013-7-5,82,75,68,70,68,64,97,80,62,30.26,30.21,30.16,10,7,0,20,6,25,1.06,7,Fog-Rain-Thunderstorm,116
2013-7-6,84,76,68,72,68,66,93,79,65,30.23,30.19,30.09,10,6,0,18,6,23,1.24,7,Fog-Rain-Thunderstorm,123
2013-7-7,79,74,69,70,69,67,100,84,67,30.23,30.18,30.12,10,7,0,13,4,31,0.04,6,Fog-Rain,192
2013-7-8,87,79,71,73,70,67,93,74,55,30.25,30.18,30.11,10,9,2,24,4,33,0.24,6,Rain-Thunderstorm,238
2013-7-9,87,79,71,73,71,69,100,78,55,30.23,30.17,30.08,10,7,0,10,4,14,0.03,7,Fog-Rain-Thunderstorm,234
2013-7-10,87,79,71,73,71,68,100,81,61,30.17,30.09,29.98,10,7,1,12,3,15,0.37,6,Rain-Thunderstorm,250
2013-7-11,81,76,71,72,70,67,93,81,69,30.04,29.98,29.90,10,10,4,9,3,20,T,5,Rain,261
2013-7-12,85,77,69,72,69,64,100,85,69,29.99,29.94,29.89,10,7,0,16,4,23,0.18,6,Fog-Rain-Thunderstorm,116
2013-7-13,77,72,67,69,66,63,93,81,69,30.12,30.05,29.97,10,9,2,14,9,20,0.11,7,Rain,78
2013-7-14,78,74,70,72,70,67,93,85,76,30.28,30.18,30.07,10,9,2,17,10,24,0.12,8,Rain,91
2013-7-15,84,77,70,71,69,67,100,81,62,30.35,30.29,30.23,10,10,5,17,8,23,0.01,6,Rain,89
2013-7-16,87,79,71,70,68,66,93,72,50,30.38,30.31,30.25,10,10,6,10,5,15,0.00,3,,77
2013-7-17,91,80,68,71,68,63,97,75,52,30.36,30.27,30.15,10,6,1,24,4,36,1.48,5,Rain-Thunderstorm,293
2013-7-18,87,78,68,71,68,66,90,74,57,30.29,30.16,30.08,10,10,6,10,3,13,T,2,Rain,62
2013-7-19,89,81,72,72,70,68,93,73,53,30.19,30.10,30.00,10,9,2,9,2,13,0.00,2,Thunderstorm,205
2013-7-20,85,78,70,72,70,66,93,81,69,30.09,30.04,29.96,10,7,1,14,2,18,0.17,4,Rain-Thunderstorm,171
2013-7-21,87,79,70,72,70,67,97,76,55,30.09,30.03,29.94,10,6,0,12,5,22,1.83,4,Fog-Rain-Thunderstorm,248
2013-7-22,83,77,70,73,69,66,97,81,65,30.07,29.99,29.90,10,8,0,31,7,40,0.94,6,Rain-Thunderstorm,264
2013-7-23,82,76,70,70,69,66,90,76,62,30.02,29.94,29.86,10,10,9,16,10,22,T,3,Rain,268
2013-7-24,84,77,70,72,69,63,97,78,58,29.93,29.87,29.82,10,9,2,17,7,24,0.23,3,Rain-Thunderstorm,278
2013-7-25,86,77,68,70,66,61,93,69,44,30.01,29.94,29.85,10,9,5,14,4,17,0.00,1,,360
2013-7-26,85,77,69,72,68,63,93,77,61,30.13,30.06,30.00,10,8,1,16,6,22,0.44,5,Rain-Thunderstorm,80
2013-7-27,80,75,70,70,68,64,97,80,62,30.04,29.99,29.92,10,7,3,14,4,17,0.00,5,,217
2013-7-28,85,77,68,68,67,66,93,74,55,30.04,29.99,29.94,10,8,3,12,5,15,0.00,2,,262
2013-7-29,85,76,67,68,61,45,90,58,26,30.17,30.10,30.04,10,10,9,13,5,16,0.00,0,,287
2013-7-30,86,75,63,67,63,59,87,69,51,30.22,30.17,30.13,10,10,10,8,3,14,0.00,0,,90
2013-7-31,78,75,71,70,68,65,87,78,69,30.15,30.07,29.99,10,10,8,12,4,30,0.02,6,Rain,218